• Join FlightAware (Why Join?)
  • Login
  • US Flag 
11:34AM EDT


 

Airport Tracker/Info


-or-


 

Live Flight TrackerFlight Track Log ✈ SWA3321 ✈ 11-Apr-2013 ✈ KLAS - KSMF

Flight Track Log - Related Links

Times and Time Zones

All times are in EDT time to prevent confusion due to time zone crossing. See the SWA3321 flight status page for this flight to view local times or setup timezone preferences in your user account.

Time Position Orientation Groundspeed Altitude Reporting Facility
EDT Latitude Longitude Course Direction KTS MPH feet Rate Location/Type
02:22PM 36.0661 -115.2514 262° West 232 267 6,100  Level Los Angeles Center
02:22PM 36.0456 -115.2656 209° Southwest 251 289 7,200 3,480 Climbing Los Angeles Center
02:23PM 35.9769 -115.2992 202° Southwest 261 300 11,200 3,360 Climbing Los Angeles Center
02:24PM 35.9178 -115.3661 223° Southwest 284 327 14,200 3,000 Climbing Los Angeles Center
02:25PM 35.8858 -115.4578 247° West 296 341 17,500 2,640 Climbing Los Angeles Center
02:26PM 35.8894 -115.5994 272° West 352 405 19,800 2,940 Climbing Los Angeles Center
02:27PM 35.8919 -115.7325 271° West 362 417 23,700 3,480 Climbing Los Angeles Center
02:28PM 35.8947 -115.8500 272° West 352 405 27,000 2,700 Climbing Los Angeles Center
02:29PM 35.8989 -115.9617 273° West 330 380 29,300 1,560 Climbing Los Angeles Center
02:30PM 35.9689 -116.0536 313° West 377 434 30,300 1,500 Climbing Los Angeles Center
02:31PM 36.0439 -116.1425 316° Northwest 381 438 32,500 1,740 Climbing Los Angeles Center
02:33PM 36.1225 -116.2314 318° Northwest 380 437 34,000 720 Climbing Los Angeles Center
02:34PM 36.2156 -116.3389 317° Northwest 382 440 34,000  Level Los Angeles Center
02:35PM 36.2933 -116.4275 317° Northwest 382 440 34,000  Level Los Angeles Center
02:36PM 36.3694 -116.5169 317° Northwest 380 437 34,000  Level Los Angeles Center
02:37PM 36.4475 -116.6075 317° Northwest 382 440 34,000  Level Los Angeles Center
02:38PM 36.5244 -116.6986 316° Northwest 383 441 34,000  Level Los Angeles Center
02:39PM 36.6272 -116.7997 322° Northwest 389 448 34,000  Level Los Angeles Center
02:40PM 36.7211 -116.8658 331° Northwest 390 449 34,000  Level Los Angeles Center
02:41PM 36.8144 -116.9353 329° Northwest 390 449 34,000  Level Los Angeles Center
02:42PM 36.9050 -117.0069 328° Northwest 387 445 34,000  Level Los Angeles Center
02:42PM 36.9411 -117.0367 327° Northwest 386 444 34,000  Level Oakland Center
02:43PM 37.0328 -117.1058 329° Northwest 385 443 34,000  Level Oakland Center
02:44PM 37.1247 -117.1772 328° Northwest 387 445 34,000  Level Oakland Center
02:45PM 37.2172 -117.2489 328° Northwest 389 448 34,000  Level Oakland Center
02:46PM 37.2989 -117.3375 319° Northwest 392 451 34,000  Level Oakland Center
02:47PM 37.3683 -117.4383 311° West 383 441 34,000 -540 Level Oakland Center
02:48PM 37.4519 -117.5667 309° West 392 451 32,900 -1,500 Descending Oakland Center
02:49PM 37.5247 -117.6761 310° West 402 463 31,000 -1,440 Descending Oakland Center
02:50PM 37.5956 -117.7825 310° West 398 458 30,000 -540 Descending Oakland Center
02:51PM 37.6661 -117.8881 310° West 393 452 30,000  Level Oakland Center
02:52PM 37.7367 -117.9958 310° West 396 456 30,000  Level Oakland Center
02:53PM 37.8061 -118.1025 310° West 394 453 30,000  Level Oakland Center
02:55PM 37.8767 -118.2086 310° West 393 452 30,000  Level Oakland Center
02:56PM 37.9478 -118.3164 310° West 397 457 30,000  Level Oakland Center
02:57PM 38.0178 -118.4261 309° West 398 458 30,000  Level Oakland Center
02:58PM 38.0892 -118.5350 310° West 401 461 30,000  Level Oakland Center
02:59PM 38.1606 -118.6456 309° West 396 456 30,000  Level Oakland Center
03:00PM 38.2300 -118.7539 309° West 395 455 30,000  Level Oakland Center
03:01PM 38.3006 -118.8625 310° West 397 457 30,000  Level Oakland Center
03:02PM 38.3839 -118.9947 309° West 397 457 30,000  Level Oakland Center
03:03PM 38.4536 -119.1056 309° West 399 459 30,000  Level Oakland Center
03:04PM 38.5244 -119.2169 309° West 402 463 30,000  Level Oakland Center
03:05PM 38.5961 -119.3281 310° West 403 464 30,000  Level Oakland Center
03:06PM 38.6639 -119.4383 308° West 398 458 30,000  Level Oakland Center
03:07PM 38.7347 -119.5494 309° West 399 459 30,000 -180 Level Oakland Center
03:08PM 38.8031 -119.6606 308° West 397 457 29,700 -720 Descending Oakland Center
03:09PM 38.8719 -119.7694 309° West 393 452 28,600 -1,140 Descending Oakland Center
03:10PM 38.9489 -119.8919 309° West 387 445 27,400 -1,380 Descending Oakland Center
03:11PM 39.0061 -119.9836 309° West 384 442 25,800 -1,860 Descending Oakland Center
03:12PM 39.0725 -120.0928 308° West 386 444 23,700 -1,740 Descending Oakland Center
03:13PM 39.1456 -120.2103 309° West 377 434 22,300 -1,200 Descending Oakland Center
03:14PM 39.1653 -120.3369 281° West 381 438 21,300 -1,080 Descending Oakland Center
03:15PM 39.1294 -120.4669 250° West 385 443 20,200 -1,020 Descending Oakland Center
03:16PM 39.0981 -120.5958 253° West 379 436 19,300 -1,020 Descending Oakland Center
03:17PM 39.0650 -120.7250 252° West 382 440 18,200 -1,020 Descending Oakland Center
03:18PM 39.0319 -120.8531 252° West 379 436 17,300 -1,320 Descending Oakland Center
03:19PM 38.9922 -121.0033 251° West 373 429 15,600 -1,740 Descending Oakland Center
03:20PM 38.9606 -121.1281 252° West 370 426 13,800 -1,860 Descending Oakland Center
03:21PM 38.9333 -121.2500 254° West 361 415 11,900 -1,560 Descending Northern Cal TRACON
03:22PM 38.9000 -121.3667 250° West 345 397 10,800 -1,140 Descending Northern Cal TRACON
03:23PM 38.8833 -121.4833 260° West 315 362 9,700 -1,200 Descending Northern Cal TRACON
03:24PM 38.8833 -121.5833 270° West 292 336 8,500 -1,380 Descending Northern Cal TRACON
03:25PM 38.8736 -121.6797 263° West 288 331 6,900 -1,440 Descending Oakland Center
03:26PM 38.8022 -121.7094 198° South 279 321 5,500 -1,440 Descending Oakland Center
03:27PM 38.7103 -121.7097 180° South 278 320 4,000 -1,020 Descending Oakland Center
03:28PM 38.6408 -121.6978 172° South 257 296 3,500 -540 Descending Oakland Center
03:29PM 38.5844 -121.6781 165° South 239 275 2,900 -960 Descending Oakland Center
03:30PM 38.5833 -121.6167 91° East 192 221 1,800 -1,020 Descending Northern Cal TRACON
03:31PM 38.6333 -121.6000 15° North 145 167 1,100 -660 Descending Northern Cal TRACON
03:32PM 38.6667 -121.6000 360° North 127 146 500 -540 Descending Northern Cal TRACON
03:33PM 38.7000 -121.6000 360° North 121 139 100 -420 Descending Northern Cal TRACON